Time;durP1;ratioP1;P1;durP2;ratioP2;P2;SDS_P1;SDS_P2;PMS_P1;PMS_P2;Temp;Humidity;BMP_temperature;BMP_pressure;BME280_temperature;BME280_humidity;BME280_pressure;Samples;Min_cycle;Max_cycle;Signal;HPM_P1;HPM_P2
2021/11/04 00:01:29;;;;;;;2.17;0.98;;;10.50;71.60;;;;;;2587433;53;20941;-69
2021/11/04 00:03:55;;;;;;;1.60;0.80;;;10.50;71.60;;;;;;2342050;54;21405;-68
2021/11/04 00:06:21;;;;;;;1.80;0.88;;;10.50;71.60;;;;;;2575507;53;20970;-69
2021/11/04 00:08:47;;;;;;;2.40;0.80;;;10.50;71.60;;;;;;2318221;54;20936;-69
2021/11/04 00:11:14;;;;;;;2.15;1.00;;;10.50;71.60;;;;;;2335496;54;21654;-69
2021/11/04 00:13:41;;;;;;;2.55;1.00;;;10.50;71.60;;;;;;2576468;53;21609;-69
2021/11/04 00:16:10;;;;;;;2.30;1.10;;;10.40;71.40;;;;;;2323620;54;21125;-69
2021/11/04 00:18:37;;;;;;;1.98;1.08;;;10.40;71.40;;;;;;2318102;54;21018;-69
2021/11/04 00:21:04;;;;;;;2.50;1.00;;;10.40;71.40;;;;;;2332475;54;20937;-68
2021/11/04 00:23:39;;;;;;;2.33;1.20;;;10.40;71.40;;;;;;2578589;53;21012;-69
2021/11/04 00:26:06;;;;;;;2.22;1.23;;;10.40;71.40;;;;;;2570342;53;20933;-69
2021/11/04 00:28:32;;;;;;;2.67;1.40;;;10.40;71.60;;;;;;2341986;54;20948;-69
2021/11/04 00:30:59;;;;;;;2.47;1.15;;;10.40;71.60;;;;;;2581718;53;21017;-69
2021/11/04 00:33:26;;;;;;;2.22;1.10;;;10.40;72.40;;;;;;2555821;53;21536;-69
2021/11/04 00:35:52;;;;;;;2.95;1.42;;;10.40;71.70;;;;;;2333450;53;20962;-69
2021/11/04 00:38:18;;;;;;;2.12;1.12;;;10.40;71.70;;;;;;2561870;53;21472;-69
2021/11/04 00:40:46;;;;;;;2.20;1.15;;;10.40;71.80;;;;;;2329790;54;20948;-69
2021/11/04 00:43:12;;;;;;;2.22;1.00;;;10.40;71.90;;;;;;2568566;53;21120;-69
2021/11/04 00:45:44;;;;;;;1.80;0.90;;;10.40;71.90;;;;;;2328481;54;21802;-69
2021/11/04 00:48:10;;;;;;;2.28;1.27;;;10.40;71.90;;;;;;2557944;53;21099;-69
2021/11/04 00:50:40;;;;;;;2.40;1.30;;;10.40;71.90;;;;;;2554986;53;21004;-69
2021/11/04 00:53:09;;;;;;;2.60;1.40;;;10.40;71.80;;;;;;2317984;54;21000;-69
2021/11/04 00:55:36;;;;;;;2.70;1.40;;;10.40;71.70;;;;;;2328187;54;20945;-69
2021/11/04 00:58:03;;;;;;;2.40;1.30;;;10.40;71.70;;;;;;2556179;53;21823;-69
2021/11/04 01:00:32;;;;;;;2.72;1.35;;;10.40;71.80;;;;;;2555420;53;20941;-69
2021/11/04 01:02:59;;;;;;;2.58;1.33;;;10.40;71.80;;;;;;2555544;53;20936;-69
2021/11/04 01:05:25;;;;;;;2.70;1.37;;;10.30;71.80;;;;;;2336483;54;20945;-69
2021/11/04 01:07:54;;;;;;;3.03;1.73;;;10.40;72.00;;;;;;2556192;53;20953;-69
2021/11/04 01:10:22;;;;;;;2.72;1.35;;;10.30;71.90;;;;;;2554846;53;21449;-69
2021/11/04 01:12:51;;;;;;;2.90;1.65;;;10.30;72.60;;;;;;2568345;53;20965;-69
2021/11/04 01:15:17;;;;;;;2.95;1.77;;;10.40;71.90;;;;;;2559037;53;21519;-69
2021/11/04 01:17:44;;;;;;;2.80;1.58;;;10.40;72.00;;;;;;2564617;53;21036;-69
2021/11/04 01:20:12;;;;;;;2.80;1.50;;;10.40;71.90;;;;;;2324484;54;20964;-69
2021/11/04 01:22:38;;;;;;;2.55;1.55;;;10.40;72.10;;;;;;2321736;54;21101;-69
2021/11/04 01:25:08;;;;;;;2.87;1.45;;;10.30;71.90;;;;;;2554940;53;20937;-69
2021/11/04 01:27:35;;;;;;;2.70;1.50;;;10.40;72.00;;;;;;2555483;53;20941;-69
2021/11/04 01:30:05;;;;;;;2.30;1.30;;;10.30;71.90;;;;;;2343388;54;20989;-69
2021/11/04 01:32:39;;;;;;;3.60;1.65;;;10.30;72.00;;;;;;2556174;53;21406;-69
2021/11/04 01:35:06;;;;;;;2.80;1.50;;;10.30;71.90;;;;;;2542158;53;20918;-69
2021/11/04 01:37:35;;;;;;;2.70;1.40;;;10.40;72.10;;;;;;2588938;53;21542;-69
2021/11/04 01:40:02;;;;;;;2.80;1.40;;;10.30;72.00;;;;;;2342053;54;21013;-69
2021/11/04 01:42:28;;;;;;;2.75;1.50;;;10.40;72.20;;;;;;2324516;54;20933;-69
2021/11/04 01:44:57;;;;;;;2.35;1.40;;;10.30;72.20;;;;;;2335768;54;21000;-69
2021/11/04 01:47:23;;;;;;;2.80;1.50;;;10.40;72.30;;;;;;2572043;53;20937;-69
2021/11/04 01:49:50;;;;;;;2.65;1.35;;;10.40;72.30;;;;;;2559361;53;21357;-69
2021/11/04 01:52:16;;;;;;;2.50;1.40;;;10.40;72.30;;;;;;2581011;53;21012;-69
2021/11/04 01:54:43;;;;;;;2.85;1.67;;;10.40;72.30;;;;;;2321672;54;21076;-69
2021/11/04 01:57:12;;;;;;;3.50;1.50;;;10.40;72.30;;;;;;2321941;54;20981;-69
2021/11/04 01:59:39;;;;;;;2.90;1.70;;;10.40;72.30;;;;;;2569663;53;21391;-69
2021/11/04 02:02:19;;;;;;;3.53;1.50;;;10.40;72.30;;;;;;2589973;53;20949;-69
2021/11/04 02:05:02;;;;;;;3.15;1.30;;;10.40;72.10;;;;;;2329749;54;20996;-69
2021/11/04 02:08:16;;;;;;;2.87;1.62;;;10.40;72.10;;;;;;2341770;54;20941;-69
2021/11/04 02:10:46;;;;;;;3.22;1.80;;;10.40;71.80;;;;;;2333900;54;20997;-69
2021/11/04 02:13:24;;;;;;;3.35;2.03;;;10.40;72.30;;;;;;2556164;53;21715;-69
2021/11/04 02:15:53;;;;;;;3.05;1.80;;;10.40;72.10;;;;;;2344217;54;20996;-69
2021/11/04 02:18:19;;;;;;;3.50;2.08;;;10.40;72.20;;;;;;2556498;53;20957;-69
2021/11/04 02:21:15;;;;;;;3.70;2.33;;;10.40;72.20;;;;;;2570607;53;20969;-68
2021/11/04 02:26:54;;;;;;;3.62;2.12;;;10.40;72.20;;;;;;2556904;53;21009;-69
2021/11/04 02:29:20;;;;;;;2.87;1.62;;;10.40;71.50;;;;;;2344080;54;20945;-69
2021/11/04 02:31:49;;;;;;;4.15;2.53;;;10.40;72.30;;;;;;2569202;53;21008;-69
2021/11/04 02:34:16;;;;;;;4.53;2.90;;;10.40;72.20;;;;;;2558917;53;20949;-69
2021/11/04 02:36:46;;;;;;;4.72;2.50;;;10.30;72.20;;;;;;2563786;53;20940;-69
2021/11/04 02:39:13;;;;;;;3.58;2.30;;;10.30;72.20;;;;;;2313330;55;21823;-69
2021/11/04 02:41:40;;;;;;;4.55;3.00;;;10.30;72.30;;;;;;2550534;53;21017;-69
2021/11/04 02:44:11;;;;;;;4.45;2.65;;;10.30;72.40;;;;;;2329336;54;21709;-69
2021/11/04 02:46:37;;;;;;;4.70;3.00;;;10.30;72.40;;;;;;2558308;53;20979;-69
2021/11/04 02:49:05;;;;;;;4.22;2.60;;;10.30;72.40;;;;;;2574548;53;21435;-69
2021/11/04 02:51:32;;;;;;;4.40;2.72;;;10.30;72.40;;;;;;2591219;53;21704;-69
2021/11/04 02:54:02;;;;;;;4.72;2.85;;;10.30;72.40;;;;;;2590347;53;21069;-69
2021/11/04 02:56:41;;;;;;;4.78;2.80;;;10.30;72.30;;;;;;2591098;53;21057;-69
2021/11/04 02:59:09;;;;;;;3.97;2.55;;;10.30;72.10;;;;;;2326259;54;21036;-69
2021/11/04 03:01:35;;;;;;;5.10;2.72;;;10.30;72.40;;;;;;2342200;54;20925;-69
2021/11/04 03:04:04;;;;;;;4.03;2.55;;;10.30;72.30;;;;;;2326881;54;20928;-69
2021/11/04 03:06:31;;;;;;;6.00;2.65;;;10.30;72.30;;;;;;2564891;53;21018;-69
2021/11/04 03:08:58;;;;;;;4.32;2.70;;;10.30;72.40;;;;;;2559622;53;21524;-69
2021/11/04 03:11:25;;;;;;;4.68;3.00;;;10.30;72.40;;;;;;2591187;53;21005;-69
2021/11/04 03:13:51;;;;;;;4.18;2.70;;;10.30;72.40;;;;;;2323631;54;20952;-69
2021/11/04 03:16:18;;;;;;;4.47;2.60;;;10.30;72.40;;;;;;2344727;54;20945;-69
2021/11/04 03:18:44;;;;;;;4.25;2.67;;;10.30;72.40;;;;;;2337482;54;20921;-69
2021/11/04 03:21:11;;;;;;;4.00;2.60;;;10.30;72.50;;;;;;2323150;54;21162;-69
2021/11/04 03:23:38;;;;;;;4.00;2.20;;;10.30;72.50;;;;;;2344081;54;20925;-69
2021/11/04 03:26:04;;;;;;;3.35;2.22;;;10.30;72.50;;;;;;2559415;53;21013;-69
2021/11/04 03:28:31;;;;;;;5.05;2.97;;;10.30;72.40;;;;;;2565757;53;21024;-70
2021/11/04 03:31:00;;;;;;;3.85;2.40;;;10.30;72.30;;;;;;2590764;53;20913;-69
2021/11/04 03:33:29;;;;;;;3.70;2.25;;;10.30;72.30;;;;;;2569804;53;20925;-69
2021/11/04 03:35:56;;;;;;;3.25;1.92;;;10.30;72.20;;;;;;2343218;54;20945;-69
2021/11/04 03:38:22;;;;;;;3.72;2.33;;;10.30;72.30;;;;;;2321020;54;20948;-69
2021/11/04 03:40:52;;;;;;;3.10;1.73;;;10.20;72.20;;;;;;2563038;53;21425;-69
2021/11/04 03:43:18;;;;;;;3.00;1.60;;;10.30;72.20;;;;;;2590965;53;20977;-69
2021/11/04 03:45:45;;;;;;;2.55;1.25;;;10.30;72.20;;;;;;2566731;53;20929;-69
2021/11/04 03:48:12;;;;;;;4.05;2.10;;;10.30;72.20;;;;;;2335471;54;20971;-69
2021/11/04 03:50:39;;;;;;;4.68;2.45;;;10.30;72.20;;;;;;2557223;53;21951;-69
2021/11/04 03:53:10;;;;;;;4.57;2.33;;;10.30;72.20;;;;;;2320099;54;20925;-69
2021/11/04 03:55:36;;;;;;;6.82;3.37;;;10.30;72.10;;;;;;2333806;54;20981;-69
2021/11/04 03:58:03;;;;;;;6.05;3.30;;;10.30;72.20;;;;;;2327199;54;20930;-69
2021/11/04 04:00:30;;;;;;;4.65;2.75;;;10.30;72.10;;;;;;2585444;53;21868;-69
2021/11/04 04:02:56;;;;;;;3.72;2.00;;;10.30;71.90;;;;;;2320395;54;21354;-69
2021/11/04 04:05:29;;;;;;;2.90;1.50;;;10.30;71.80;;;;;;2576368;53;20989;-69
2021/11/04 04:07:56;;;;;;;2.60;1.40;;;10.30;71.80;;;;;;2346864;54;21234;-69
2021/11/04 04:10:23;;;;;;;2.22;1.20;;;10.30;71.80;;;;;;2563084;53;20994;-69
2021/11/04 04:12:49;;;;;;;2.67;1.48;;;10.30;71.80;;;;;;2343851;54;20989;-69
2021/11/04 04:15:17;;;;;;;2.60;1.33;;;10.20;71.70;;;;;;2591071;53;21820;-68
2021/11/04 04:17:45;;;;;;;2.62;1.48;;;10.20;71.70;;;;;;2566717;53;21040;-69
2021/11/04 04:20:11;;;;;;;2.45;1.40;;;10.20;71.80;;;;;;2322906;54;21569;-69
2021/11/04 04:22:38;;;;;;;2.35;1.33;;;10.20;71.70;;;;;;2556309;53;21823;-69
2021/11/04 04:25:05;;;;;;;2.72;1.37;;;10.20;71.70;;;;;;2557292;53;21422;-69
2021/11/04 04:27:35;;;;;;;3.08;1.50;;;10.20;71.70;;;;;;2585247;53;20910;-69
2021/11/04 04:30:02;;;;;;;3.00;1.45;;;10.20;71.60;;;;;;2557173;53;20929;-69
2021/11/04 04:32:29;;;;;;;2.72;1.45;;;10.10;71.60;;;;;;2563830;53;21017;-69
2021/11/04 04:34:55;;;;;;;2.50;1.30;;;10.10;71.50;;;;;;2590485;53;21862;-69
2021/11/04 04:37:21;;;;;;;2.05;1.10;;;10.10;71.40;;;;;;2324017;54;20983;-69
2021/11/04 04:39:48;;;;;;;2.50;1.25;;;10.10;71.50;;;;;;2328829;54;20969;-69
2021/11/04 04:42:14;;;;;;;2.42;1.17;;;10.00;71.40;;;;;;2569091;53;21049;-69
2021/11/04 04:44:40;;;;;;;2.40;1.33;;;10.00;71.50;;;;;;2584542;53;21501;-69
2021/11/04 04:47:07;;;;;;;2.95;1.40;;;10.00;71.60;;;;;;2343977;54;20981;-69
2021/11/04 04:49:34;;;;;;;2.80;1.30;;;10.00;71.60;;;;;;2584571;53;20957;-69
2021/11/04 04:52:01;;;;;;;3.10;1.30;;;10.00;71.70;;;;;;2326417;54;21005;-69
2021/11/04 04:54:27;;;;;;;2.35;1.30;;;9.80;72.60;;;;;;2572717;53;21848;-69
2021/11/04 04:56:54;;;;;;;3.00;1.27;;;9.90;72.60;;;;;;2323746;54;20948;-69
2021/11/04 04:59:20;;;;;;;4.05;1.30;;;9.90;72.70;;;;;;2590407;53;20929;-69
2021/11/04 05:01:48;;;;;;;2.53;1.15;;;9.90;72.60;;;;;;2344309;54;21021;-68
2021/11/04 05:04:15;;;;;;;2.40;1.25;;;9.90;72.60;;;;;;2588435;53;20953;-69
2021/11/04 05:06:42;;;;;;;2.37;1.30;;;9.90;72.70;;;;;;2582371;53;20960;-69
2021/11/04 05:09:09;;;;;;;2.70;1.40;;;9.80;72.80;;;;;;2321061;54;20997;-69
2021/11/04 05:11:38;;;;;;;3.00;1.42;;;9.80;72.80;;;;;;2335980;54;20905;-69
2021/11/04 05:14:08;;;;;;;2.78;1.30;;;9.80;72.80;;;;;;2575392;53;21009;-69
2021/11/04 05:16:35;;;;;;;2.00;1.10;;;9.80;72.90;;;;;;2317857;55;20993;-69
2021/11/04 05:19:04;;;;;;;2.80;1.50;;;9.80;72.90;;;;;;2563556;53;21037;-69
2021/11/04 05:21:31;;;;;;;2.28;1.23;;;9.80;72.90;;;;;;2323702;54;21496;-69
2021/11/04 05:23:57;;;;;;;2.87;1.50;;;9.80;73.00;;;;;;2565645;53;21834;-69
2021/11/04 05:26:24;;;;;;;2.80;1.55;;;9.80;73.10;;;;;;2560659;52;21000;-69
2021/11/04 05:28:51;;;;;;;3.62;1.80;;;9.80;73.10;;;;;;2581133;53;21020;-69
2021/11/04 05:31:17;;;;;;;3.15;1.87;;;9.80;73.10;;;;;;2328189;54;20973;-69
2021/11/04 05:33:43;;;;;;;3.62;2.05;;;9.80;73.20;;;;;;2590699;53;21297;-68
2021/11/04 05:36:10;;;;;;;3.35;2.08;;;9.80;73.30;;;;;;2344380;54;20992;-69
2021/11/04 05:38:36;;;;;;;3.00;1.87;;;9.80;73.40;;;;;;2590362;53;20949;-69
2021/11/04 05:41:03;;;;;;;3.30;1.90;;;9.80;73.40;;;;;;2343457;54;21073;-69
2021/11/04 05:43:32;;;;;;;3.20;1.83;;;9.80;73.50;;;;;;2571777;53;21919;-69
2021/11/04 05:46:00;;;;;;;3.10;1.92;;;9.80;73.40;;;;;;2320222;54;21012;-69
2021/11/04 05:48:27;;;;;;;3.60;1.85;;;9.80;73.50;;;;;;2322627;54;21781;-69
2021/11/04 05:50:53;;;;;;;3.37;2.05;;;9.80;73.50;;;;;;2330922;54;21501;-69
2021/11/04 05:53:19;;;;;;;4.22;2.42;;;9.90;73.70;;;;;;2557047;53;20973;-69
2021/11/04 05:55:48;;;;;;;11.77;7.12;;;9.80;73.60;;;;;;2313524;54;21029;-69
2021/11/04 05:58:16;;;;;;;8.77;5.30;;;9.90;73.80;;;;;;2563786;53;20961;-69
2021/11/04 06:00:42;;;;;;;7.57;4.72;;;9.90;73.90;;;;;;2317268;54;21938;-69
2021/11/04 06:03:10;;;;;;;4.68;2.90;;;9.90;73.90;;;;;;2568241;53;20962;-69
2021/11/04 06:05:37;;;;;;;4.40;2.30;;;9.90;73.80;;;;;;2343882;54;20941;-70
2021/11/04 06:08:04;;;;;;;3.17;1.62;;;9.90;73.70;;;;;;2325076;54;20960;-69
2021/11/04 06:10:30;;;;;;;2.72;1.40;;;9.90;73.60;;;;;;2340626;54;21080;-69
2021/11/04 06:12:57;;;;;;;2.33;1.20;;;9.90;73.60;;;;;;2327171;54;20937;-69
2021/11/04 06:15:26;;;;;;;2.67;1.20;;;10.00;72.50;;;;;;2320751;54;20977;-69
2021/11/04 06:17:52;;;;;;;3.15;1.10;;;10.00;72.50;;;;;;2582819;53;21066;-69
2021/11/04 06:20:19;;;;;;;3.10;1.30;;;10.00;72.50;;;;;;2325980;54;20941;-69
2021/11/04 06:22:46;;;;;;;4.20;2.37;;;10.00;72.40;;;;;;2542666;53;20945;-69
2021/11/04 06:25:12;;;;;;;3.67;1.77;;;10.00;72.40;;;;;;2343443;54;21391;-69
2021/11/04 06:27:39;;;;;;;3.45;1.65;;;10.00;72.40;;;;;;2562417;53;20996;-69
2021/11/04 06:30:07;;;;;;;3.62;1.40;;;10.00;72.40;;;;;;2581047;53;20980;-69
2021/11/04 06:32:34;;;;;;;2.58;1.20;;;10.00;72.40;;;;;;2565467;53;20953;-69
2021/11/04 06:35:35;;;;;;;2.40;1.08;;;10.00;72.40;;;;;;2345456;54;20983;-69
2021/11/04 06:38:02;;;;;;;2.12;1.02;;;10.00;72.40;;;;;;2556775;53;21008;-69
2021/11/04 06:40:28;;;;;;;2.00;0.95;;;10.00;72.40;;;;;;2336332;54;21029;-69
2021/11/04 06:42:56;;;;;;;2.47;1.27;;;10.00;72.40;;;;;;2562298;53;21446;-69
2021/11/04 06:45:23;;;;;;;2.53;1.17;;;10.00;72.30;;;;;;2341894;54;21493;-69
2021/11/04 06:47:51;;;;;;;2.50;1.10;;;10.00;72.30;;;;;;2568210;53;20929;-69
2021/11/04 06:50:19;;;;;;;2.10;1.02;;;10.00;72.40;;;;;;2589898;53;20934;-69
2021/11/04 06:52:50;;;;;;;2.20;1.02;;;10.00;72.40;;;;;;2588085;53;20996;-69
2021/11/04 06:55:16;;;;;;;2.13;0.90;;;10.00;72.40;;;;;;2321388;54;21004;-70
2021/11/04 06:57:47;;;;;;;2.40;1.15;;;10.00;72.40;;;;;;2341678;54;20969;-69
2021/11/04 07:00:14;;;;;;;2.78;1.20;;;10.10;72.50;;;;;;2333364;54;21500;-69
2021/11/04 07:02:43;;;;;;;2.45;1.20;;;10.10;72.60;;;;;;2336321;54;20991;-70
2021/11/04 07:05:13;;;;;;;2.80;1.33;;;10.10;72.60;;;;;;2343497;54;20988;-70
2021/11/04 07:07:44;;;;;;;2.72;1.20;;;10.10;72.60;;;;;;2328330;54;20994;-69
2021/11/04 07:10:11;;;;;;;2.10;1.05;;;10.10;72.70;;;;;;2583769;53;20993;-70
2021/11/04 07:12:53;;;;;;;2.30;1.08;;;10.10;72.70;;;;;;2554900;53;21572;-70
2021/11/04 07:15:21;;;;;;;2.40;1.02;;;10.10;72.60;;;;;;2570827;53;20960;-69
2021/11/04 07:17:47;;;;;;;2.37;1.10;;;10.10;72.60;;;;;;2318081;54;21028;-69
2021/11/04 07:20:15;;;;;;;2.20;1.00;;;10.10;72.60;;;;;;2331700;54;21572;-69
2021/11/04 07:22:52;;;;;;;2.55;1.08;;;10.10;72.50;;;;;;2328972;54;21337;-69
2021/11/04 07:25:21;;;;;;;2.35;0.93;;;10.10;72.40;;;;;;2329926;54;20964;-69
2021/11/04 07:28:08;;;;;;;2.55;1.20;;;10.10;72.40;;;;;;2560186;53;20968;-69
2021/11/04 07:30:34;;;;;;;2.40;1.10;;;10.10;72.30;;;;;;2338443;54;20985;-69
2021/11/04 07:33:04;;;;;;;2.55;1.20;;;10.10;72.40;;;;;;2312443;54;21041;-69
2021/11/04 07:35:32;;;;;;;2.60;1.37;;;10.10;72.30;;;;;;2558504;53;20987;-70
2021/11/04 07:37:59;;;;;;;3.15;1.55;;;10.10;72.20;;;;;;2574940;53;21535;-69
2021/11/04 07:40:26;;;;;;;2.90;1.50;;;10.10;72.20;;;;;;2344401;54;20957;-69
2021/11/04 07:42:53;;;;;;;3.72;1.35;;;10.10;72.20;;;;;;2337816;54;21492;-69
2021/11/04 07:45:19;;;;;;;2.80;1.50;;;10.10;72.20;;;;;;2319683;54;21963;-69
2021/11/04 07:47:47;;;;;;;2.62;1.23;;;10.10;72.20;;;;;;2327971;54;20929;-69
2021/11/04 07:50:18;;;;;;;2.60;1.27;;;10.00;72.20;;;;;;2344286;54;21448;-69
2021/11/04 07:52:45;;;;;;;3.08;1.35;;;10.10;72.20;;;;;;2344697;54;21101;-69
2021/11/04 07:55:12;;;;;;;2.87;1.62;;;10.00;72.10;;;;;;2320432;54;20961;-69
2021/11/04 07:57:39;;;;;;;2.92;1.48;;;10.00;72.20;;;;;;2333605;54;20953;-69
2021/11/04 08:00:18;;;;;;;3.33;1.67;;;10.00;72.20;;;;;;2585497;53;21012;-69
2021/11/04 08:02:44;;;;;;;3.75;1.90;;;10.00;72.00;;;;;;2320004;54;20997;-69
2021/11/04 08:05:13;;;;;;;3.55;2.12;;;10.00;72.10;;;;;;2582949;53;21016;-69
2021/11/04 08:07:40;;;;;;;3.65;1.92;;;10.00;72.00;;;;;;2327285;55;20933;-69
2021/11/04 08:10:10;;;;;;;3.50;2.03;;;10.00;71.90;;;;;;2590973;53;21446;-69
2021/11/04 08:12:37;;;;;;;3.65;2.08;;;9.90;72.90;;;;;;2344431;54;20961;-69
2021/11/04 08:15:04;;;;;;;3.55;1.83;;;9.90;73.00;;;;;;2590355;53;21467;-69
2021/11/04 08:17:31;;;;;;;3.85;2.15;;;9.90;73.10;;;;;;2343643;54;21016;-69
2021/11/04 08:19:57;;;;;;;3.53;1.90;;;9.90;73.10;;;;;;2319571;54;20984;-69
2021/11/04 08:22:23;;;;;;;3.28;1.80;;;9.90;73.10;;;;;;2329875;54;20909;-69
2021/11/04 08:24:49;;;;;;;3.87;1.80;;;9.90;73.30;;;;;;2333318;54;21012;-69
2021/11/04 08:27:16;;;;;;;4.05;2.30;;;9.90;73.50;;;;;;2334052;54;20973;-69
2021/11/04 08:29:46;;;;;;;4.43;2.45;;;9.90;73.50;;;;;;2589168;53;20921;-69
2021/11/04 08:32:12;;;;;;;3.92;2.28;;;9.80;73.40;;;;;;2339081;54;20937;-69
2021/11/04 08:34:39;;;;;;;5.72;2.30;;;9.90;73.60;;;;;;2564363;53;20988;-69
2021/11/04 08:37:06;;;;;;;4.43;2.50;;;9.80;73.70;;;;;;2331514;54;20913;-69
2021/11/04 08:39:32;;;;;;;3.85;1.98;;;9.80;73.80;;;;;;2579219;53;20985;-69
2021/11/04 08:41:59;;;;;;;4.72;2.65;;;9.90;74.00;;;;;;2556826;53;20941;-69
2021/11/04 08:44:25;;;;;;;4.68;2.95;;;9.90;74.00;;;;;;2561843;52;20917;-69
2021/11/04 08:46:52;;;;;;;6.07;3.45;;;9.90;74.20;;;;;;2320686;54;21308;-69
2021/11/04 08:49:20;;;;;;;5.55;3.35;;;9.90;74.20;;;;;;2330808;54;21056;-69
2021/11/04 08:51:47;;;;;;;5.05;2.80;;;9.90;74.20;;;;;;2320091;54;20987;-69
2021/11/04 08:54:13;;;;;;;5.25;2.70;;;9.90;74.20;;;;;;2319182;55;21446;-69
2021/11/04 08:56:40;;;;;;;4.12;2.40;;;10.00;73.20;;;;;;2331989;54;21000;-70
2021/11/04 08:59:07;;;;;;;3.92;2.30;;;10.00;73.30;;;;;;2337678;54;21677;-70
2021/11/04 09:01:34;;;;;;;4.30;2.45;;;10.00;73.20;;;;;;2323581;54;21043;-70
2021/11/04 09:04:00;;;;;;;3.95;2.47;;;10.00;73.20;;;;;;2343318;54;21018;-70
2021/11/04 09:06:28;;;;;;;3.85;2.15;;;10.00;73.20;;;;;;2328184;54;21008;-69
2021/11/04 09:08:54;;;;;;;4.37;2.80;;;10.10;73.30;;;;;;2319550;54;21039;-69
2021/11/04 09:11:27;;;;;;;3.97;2.42;;;10.10;73.30;;;;;;2557579;53;21342;-69
2021/11/04 09:14:03;;;;;;;5.37;3.60;;;10.10;73.30;;;;;;2574177;53;21000;-70
2021/11/04 09:16:31;;;;;;;6.07;3.58;;;10.10;73.20;;;;;;2334049;54;20989;-70
2021/11/04 09:18:57;;;;;;;4.82;3.05;;;10.10;73.10;;;;;;2570077;53;20961;-70
2021/11/04 09:21:24;;;;;;;4.15;2.50;;;10.10;73.10;;;;;;2557048;53;20928;-70
2021/11/04 09:23:51;;;;;;;5.15;2.87;;;10.10;73.20;;;;;;2584414;53;20949;-70
2021/11/04 09:26:18;;;;;;;5.20;2.62;;;10.20;73.40;;;;;;2332067;54;21052;-69
2021/11/04 09:28:44;;;;;;;4.35;2.45;;;10.20;73.30;;;;;;2571565;53;20961;-69
2021/11/04 09:31:11;;;;;;;4.95;2.92;;;10.20;73.20;;;;;;2320570;54;20921;-69
2021/11/04 09:33:39;;;;;;;4.22;2.65;;;10.20;73.10;;;;;;2342449;54;20959;-70
2021/11/04 09:36:05;;;;;;;4.62;3.00;;;10.20;73.20;;;;;;2307407;54;2238710;-70
2021/11/04 09:38:32;;;;;;;4.07;2.72;;;10.20;73.20;;;;;;2568671;53;21028;-70
2021/11/04 09:40:58;;;;;;;4.50;2.85;;;10.20;73.30;;;;;;2577715;53;21499;-70
2021/11/04 09:43:27;;;;;;;4.72;3.05;;;10.20;73.40;;;;;;2557984;53;20993;-70
2021/11/04 09:45:54;;;;;;;4.72;2.92;;;10.20;73.40;;;;;;2578024;53;20985;-70
2021/11/04 09:48:20;;;;;;;6.28;3.22;;;10.30;73.50;;;;;;2591888;53;20912;-70
2021/11/04 09:50:49;;;;;;;3.85;2.37;;;10.30;73.50;;;;;;2343455;54;20957;-70
2021/11/04 09:53:16;;;;;;;4.85;3.22;;;10.30;73.50;;;;;;2591057;53;20933;-70
2021/11/04 09:55:42;;;;;;;4.97;3.28;;;10.30;73.60;;;;;;2344108;54;20977;-69
2021/11/04 09:58:09;;;;;;;5.40;3.45;;;10.30;73.80;;;;;;2591075;53;21682;-70
2021/11/04 10:00:41;;;;;;;5.53;3.85;;;10.30;73.70;;;;;;2343021;54;20969;-70
2021/11/04 10:03:11;;;;;;;5.87;3.97;;;10.40;73.60;;;;;;2566368;53;20968;-70
2021/11/04 10:05:51;;;;;;;6.62;4.45;;;10.40;73.60;;;;;;2326263;54;22031;-70
2021/11/04 10:08:33;;;;;;;5.97;4.03;;;10.40;73.50;;;;;;2590288;53;21394;-70
2021/11/04 10:11:11;;;;;;;6.68;3.78;;;10.40;73.40;;;;;;2344093;54;20988;-70
2021/11/04 10:13:39;;;;;;;5.97;3.92;;;10.40;73.30;;;;;;2590488;53;21061;-70
2021/11/04 10:16:09;;;;;;;6.00;3.85;;;10.50;73.60;;;;;;2344637;54;20973;-70
2021/11/04 10:19:10;;;;;;;5.65;3.70;;;10.50;73.50;;;;;;2344174;54;21056;-70
2021/11/04 10:21:41;;;;;;;6.80;4.37;;;10.50;73.10;;;;;;2590203;53;20965;-70
2021/11/04 10:24:20;;;;;;;5.70;3.95;;;10.50;73.50;;;;;;2563432;53;20949;-70
2021/11/04 10:26:46;;;;;;;6.15;4.07;;;10.50;73.40;;;;;;2344734;54;20961;-70
2021/11/04 10:29:13;;;;;;;7.05;4.30;;;10.50;73.60;;;;;;2325024;54;21458;-70
2021/11/04 10:31:44;;;;;;;8.07;4.93;;;10.60;73.70;;;;;;2345882;54;20979;-70
2021/11/04 10:34:15;;;;;;;6.68;4.72;;;10.70;73.80;;;;;;2567836;53;20930;-70
2021/11/04 10:36:43;;;;;;;7.50;5.00;;;10.60;73.70;;;;;;2333494;54;20949;-70
2021/11/04 10:39:10;;;;;;;9.43;5.55;;;10.60;73.70;;;;;;2581061;53;20980;-70
2021/11/04 10:41:39;;;;;;;7.28;5.30;;;10.60;74.40;;;;;;2326514;54;20917;-70
2021/11/04 10:44:17;;;;;;;9.55;6.12;;;10.60;73.60;;;;;;2563979;53;20989;-70
2021/11/04 10:46:49;;;;;;;7.47;5.32;;;10.70;73.60;;;;;;2586715;53;20945;-70
2021/11/04 10:49:18;;;;;;;10.52;6.20;;;10.70;73.80;;;;;;2559993;53;21282;-70
2021/11/04 10:51:44;;;;;;;8.13;5.72;;;10.70;73.80;;;;;;2566805;53;20964;-70
2021/11/04 10:54:13;;;;;;;8.70;5.93;;;10.70;73.80;;;;;;2568065;53;20973;-70
2021/11/04 10:56:51;;;;;;;8.38;5.68;;;10.80;73.90;;;;;;2558381;53;20988;-70
2021/11/04 10:59:18;;;;;;;8.63;5.97;;;10.80;73.70;;;;;;2561717;53;20957;-69
2021/11/04 11:01:46;;;;;;;8.55;6.05;;;10.80;73.90;;;;;;2562785;53;21059;-70
2021/11/04 11:04:24;;;;;;;9.65;6.95;;;10.80;73.90;;;;;;2562289;53;21442;-70
2021/11/04 11:06:52;;;;;;;13.00;7.70;;;10.90;73.60;;;;;;2327319;54;21032;-70
2021/11/04 11:09:21;;;;;;;11.23;7.05;;;10.90;73.80;;;;;;2576606;53;20929;-70
2021/11/04 11:11:51;;;;;;;10.85;7.00;;;10.90;73.80;;;;;;2344037;54;20913;-70
2021/11/04 11:14:20;;;;;;;9.13;6.40;;;10.90;73.70;;;;;;2563105;53;21077;-71
2021/11/04 11:16:48;;;;;;;7.97;6.10;;;10.90;73.70;;;;;;2580723;53;21009;-70
2021/11/04 11:20:01;;;;;;;10.10;7.00;;;11.00;73.70;;;;;;2329438;54;20945;-70
2021/11/04 11:22:27;;;;;;;;;;;11.10;73.60;;;;;;2565099;53;20972;-70
2021/11/04 11:24:54;;;;;;;8.05;5.10;;;11.00;72.80;;;;;;2333517;54;20055;-71
2021/11/04 11:27:23;;;;;;;9.00;6.00;;;11.00;73.30;;;;;;2336129;54;21013;-70
2021/11/04 11:29:50;;;;;;;8.90;5.87;;;11.00;73.30;;;;;;2327956;54;20948;-70
2021/11/04 11:32:29;;;;;;;8.88;6.05;;;11.00;73.40;;;;;;2326718;54;20948;-70
2021/11/04 11:35:19;;;;;;;7.78;5.22;;;11.00;73.20;;;;;;2341463;54;21024;-71
2021/11/04 11:38:06;;;;;;;7.80;5.30;;;11.00;73.10;;;;;;2345578;54;21004;-70
2021/11/04 11:40:33;;;;;;;7.87;5.37;;;11.00;73.10;;;;;;2326811;54;21068;-70
2021/11/04 11:43:09;;;;;;;8.70;6.03;;;11.00;73.40;;;;;;2564607;53;20972;-70
2021/11/04 11:45:37;;;;;;;8.50;5.37;;;11.00;73.30;;;;;;2309356;55;20973;-70
2021/11/04 11:48:23;;;;;;;7.45;5.40;;;11.00;73.30;;;;;;2333595;54;20949;-70
2021/11/04 11:50:50;;;;;;;7.75;5.40;;;11.00;73.30;;;;;;2570713;53;21049;-70
2021/11/04 11:53:40;;;;;;;8.45;6.07;;;11.00;73.60;;;;;;2329572;54;20933;-70
2021/11/04 11:56:22;;;;;;;7.62;5.62;;;11.10;73.50;;;;;;2325397;54;21473;-70
2021/11/04 11:59:19;;;;;;;8.27;5.37;;;11.10;73.70;;;;;;2587549;53;21434;-70
2021/11/04 12:01:48;;;;;;;9.52;6.18;;;11.10;74.30;;;;;;2319658;54;21036;-70
2021/11/04 12:04:27;;;;;;;10.18;6.30;;;11.10;74.00;;;;;;2334093;54;21052;-70
2021/11/04 12:06:58;;;;;;;9.38;6.37;;;11.20;74.00;;;;;;2329558;54;20933;-70
2021/11/04 12:09:41;;;;;;;7.30;5.28;;;11.20;74.30;;;;;;2343913;54;20941;-70
2021/11/04 12:12:10;;;;;;;9.07;5.72;;;11.20;74.30;;;;;;2324250;55;20969;-71
2021/11/04 12:14:37;;;;;;;7.95;5.93;;;11.30;74.70;;;;;;2345433;57;21120;-70
2021/11/04 12:17:08;;;;;;;9.27;6.55;;;11.40;74.70;;;;;;2343712;57;21836;-70
2021/11/04 12:19:46;;;;;;;10.10;7.15;;;11.40;74.60;;;;;;2330523;54;21029;-70
2021/11/04 12:22:34;;;;;;;8.88;6.37;;;11.40;74.40;;;;;;2334549;54;21014;-70
2021/11/04 12:25:04;;;;;;;8.65;6.32;;;11.40;74.20;;;;;;2324192;54;20993;-71
2021/11/04 12:27:40;;;;;;;9.00;6.20;;;11.50;74.50;;;;;;2576111;52;21893;-70
2021/11/04 12:30:31;;;;;;;8.43;5.15;;;11.50;74.70;;;;;;2323748;54;20968;-70
2021/11/04 12:33:33;;;;;;;8.38;5.03;;;11.60;74.50;;;;;;2542778;53;21043;-70
2021/11/04 12:36:03;;;;;;;6.45;4.25;;;11.60;73.90;;;;;;2311719;54;21507;-70
2021/11/04 12:38:40;;;;;;;8.07;5.37;;;11.70;74.30;;;;;;2570907;53;20981;-70
2021/11/04 12:41:11;;;;;;;7.60;5.18;;;11.70;74.00;;;;;;2321039;54;20985;-70
2021/11/04 12:43:38;;;;;;;9.23;6.30;;;11.70;73.90;;;;;;2581031;53;21410;-70
2021/11/04 12:46:18;;;;;;;9.98;6.37;;;11.70;73.80;;;;;;2563594;53;21035;-70
2021/11/04 12:49:05;;;;;;;7.80;6.03;;;11.80;73.50;;;;;;2564267;53;21025;-69
2021/11/04 12:51:46;;;;;;;9.65;5.87;;;11.80;73.40;;;;;;2332901;54;21044;-70
2021/11/04 12:54:16;;;;;;;7.37;5.30;;;11.80;73.50;;;;;;2557944;53;21020;-70
2021/11/04 12:56:54;;;;;;;9.30;5.70;;;11.80;73.70;;;;;;2331647;54;21036;-70
2021/11/04 13:00:04;;;;;;;9.00;6.12;;;11.70;73.70;;;;;;2557890;53;21582;-70
2021/11/04 13:02:33;;;;;;;8.00;5.93;;;11.80;73.20;;;;;;2308269;54;21120;-70
2021/11/04 13:05:15;;;;;;;9.20;6.18;;;11.80;73.50;;;;;;2561568;53;20961;-70